Disclaimer

Please do not use the information listed here in-flight or in-navigation, as they are not provided to us by the airports but are provided by volunteers, so they might be outdated.

Search


Regions


Airport information page

Radio informations:
INFO - 118.325 MHz

Airport informations:
Latitude: 44° 53' 29.00" N
Longitude: 002° 25' 19.00" E
Elevation: 2096 feet - 639 meters
Operating hours: Remarks
Operating agency: Civil government, landing fees and diplomatic clearance may be required
Timezone: UTC+1(+2DT) - Last Sunday in March to last Sunday in October
Fuel: Jet A1, without icing nhibitor.

100/130 MIL Spec, low lead, aviation gasoline (BLUE)

Runway information:
15/33 - 5577 x 98 feet< - >1700 x 30 meters

Recent METARs:
LFLW 151130Z AUTO 11004KT 070V130 CAVOK 02/M02 Q1019 NOSIG
LFLW 151200Z AUTO 11004KT 9999 OVC052 03/M02 Q1019 NOSIG
LFLW 151230Z AUTO 09006KT 9999 -RA OVC045/// ///TCU 03/M02 Q1019 BECMG OVC017

Airport on the map: